Time;durP1;ratioP1;P1;durP2;ratioP2;P2;SDS_P1;SDS_P2;PMS_P1;PMS_P2;Temp;Humidity;BMP_temperature;BMP_pressure;BME280_temperature;BME280_humidity;BME280_pressure;Samples;Min_cycle;Max_cycle;Signal;HPM_P1;HPM_P2
2022/03/25 00:00:37;;;;;;;7.10;6.50;;;21.30;43.00;;;;;;5143650;27;43970;-62
2022/03/25 00:03:05;;;;;;;7.20;6.50;;;21.30;43.10;;;;;;5144572;27;43687;-62
2022/03/25 00:05:33;;;;;;;7.20;6.60;;;21.20;43.00;;;;;;5144554;27;44688;-62
2022/03/25 00:08:01;;;;;;;7.40;6.70;;;21.20;42.90;;;;;;5144819;27;43469;-62
2022/03/25 00:10:29;;;;;;;6.93;6.32;;;21.20;43.60;;;;;;5144351;27;44002;-62
2022/03/25 00:12:56;;;;;;;7.50;6.90;;;21.20;43.10;;;;;;5144618;27;43491;-62
2022/03/25 00:15:24;;;;;;;7.22;6.63;;;21.20;43.10;;;;;;5145712;27;44075;-62
2022/03/25 00:17:52;;;;;;;8.02;7.22;;;21.10;43.70;;;;;;5145787;27;43519;-62
2022/03/25 00:20:19;;;;;;;8.10;7.30;;;21.10;43.00;;;;;;5145583;27;43395;-62
2022/03/25 00:22:46;;;;;;;8.02;7.32;;;21.10;43.10;;;;;;5145118;27;43514;-62
2022/03/25 00:25:15;;;;;;;7.65;7.05;;;21.10;43.10;;;;;;5145834;27;44038;-62
2022/03/25 00:27:46;;;;;;;8.25;7.45;;;21.00;43.10;;;;;;5146132;27;43727;-62
2022/03/25 00:30:13;;;;;;;7.93;7.18;;;21.00;43.00;;;;;;5129068;27;43474;-62
2022/03/25 00:32:41;;;;;;;8.25;7.55;;;21.00;43.10;;;;;;5144517;27;43478;-62
2022/03/25 00:35:10;;;;;;;7.70;7.07;;;21.00;43.00;;;;;;5126532;27;43825;-62
2022/03/25 00:37:39;;;;;;;8.57;7.80;;;21.00;43.10;;;;;;5144274;27;43470;-63
2022/03/25 00:40:07;;;;;;;8.02;7.32;;;21.00;43.10;;;;;;5142844;27;43476;-62
2022/03/25 00:42:35;;;;;;;8.52;7.80;;;21.00;43.10;;;;;;5125239;27;43698;-62
2022/03/25 00:45:06;;;;;;;8.35;7.57;;;21.00;43.10;;;;;;5118556;27;44355;-62
2022/03/25 00:47:36;;;;;;;7.43;6.82;;;20.90;43.10;;;;;;5145206;27;43620;-62
2022/03/25 00:50:04;;;;;;;8.60;7.80;;;20.90;43.00;;;;;;5124290;27;43620;-62
2022/03/25 00:52:32;;;;;;;7.82;7.22;;;20.90;43.10;;;;;;5143960;27;43745;-63
2022/03/25 00:55:00;;;;;;;8.60;7.80;;;20.90;43.10;;;;;;5125214;27;43828;-62
2022/03/25 00:57:27;;;;;;;8.23;7.50;;;20.90;43.10;;;;;;5127156;27;43948;-62
2022/03/25 00:59:56;;;;;;;8.43;7.63;;;20.90;43.10;;;;;;5145415;27;43424;-62
2022/03/25 01:02:23;;;;;;;7.90;7.20;;;20.90;43.10;;;;;;5130730;27;43511;-62
2022/03/25 01:04:51;;;;;;;8.25;7.55;;;20.80;43.10;;;;;;5144802;27;44976;-62
2022/03/25 01:07:19;;;;;;;8.35;7.55;;;20.80;43.10;;;;;;5145008;27;43955;-62
2022/03/25 01:09:47;;;;;;;8.65;7.85;;;20.80;43.10;;;;;;5126487;27;43771;-63
2022/03/25 01:12:14;;;;;;;8.00;7.28;;;20.80;43.10;;;;;;5122784;27;43593;-62
2022/03/25 01:14:42;;;;;;;8.18;7.47;;;20.80;43.20;;;;;;5116986;27;44045;-62
2022/03/25 01:17:15;;;;;;;8.25;7.55;;;20.80;43.00;;;;;;5121598;27;44079;-63
2022/03/25 01:19:44;;;;;;;7.93;7.28;;;20.70;42.90;;;;;;5123383;27;44057;-62
2022/03/25 01:22:11;;;;;;;8.77;7.97;;;20.70;43.00;;;;;;5122695;27;43641;-62
2022/03/25 01:24:39;;;;;;;9.23;8.43;;;20.70;43.00;;;;;;5122692;27;44058;-62
2022/03/25 01:27:06;;;;;;;8.35;7.65;;;20.70;43.10;;;;;;5125602;27;43959;-62
2022/03/25 01:29:34;;;;;;;8.43;7.72;;;20.70;43.10;;;;;;5124412;27;43490;-62
2022/03/25 01:32:01;;;;;;;8.13;7.43;;;20.60;42.90;;;;;;5126193;27;43515;-62
2022/03/25 01:34:29;;;;;;;7.88;7.28;;;20.60;43.10;;;;;;5127252;27;44741;-62
2022/03/25 01:36:56;;;;;;;8.20;7.50;;;20.60;43.10;;;;;;5124281;27;43971;-62
2022/03/25 01:39:24;;;;;;;7.85;7.13;;;20.60;43.00;;;;;;5125583;27;43409;-63
2022/03/25 01:41:55;;;;;;;8.43;7.63;;;20.60;43.10;;;;;;5117538;27;43528;-62
2022/03/25 01:44:30;;;;;;;8.43;7.63;;;20.50;43.00;;;;;;5125634;27;44697;-62
2022/03/25 01:47:00;;;;;;;7.50;6.80;;;20.60;43.00;;;;;;5121526;27;43527;-62
2022/03/25 01:49:27;;;;;;;7.90;7.20;;;20.60;43.10;;;;;;5126008;27;43524;-62
2022/03/25 01:52:06;;;;;;;7.75;7.05;;;20.60;43.00;;;;;;5126107;27;43496;-63
2022/03/25 01:54:35;;;;;;;8.25;7.45;;;20.60;42.90;;;;;;5127027;27;44655;-62
2022/03/25 01:57:09;;;;;;;7.35;6.75;;;20.50;43.10;;;;;;5126128;27;43455;-62
2022/03/25 01:59:36;;;;;;;8.00;7.30;;;20.50;43.10;;;;;;5125713;27;43382;-62
2022/03/25 02:02:06;;;;;;;7.32;6.63;;;20.50;42.90;;;;;;5126428;27;43535;-62
2022/03/25 02:04:35;;;;;;;7.28;6.60;;;20.50;42.90;;;;;;5126908;27;44066;-63
2022/03/25 02:07:03;;;;;;;6.88;6.28;;;20.50;43.20;;;;;;5126232;27;43712;-62
2022/03/25 02:09:31;;;;;;;7.03;6.43;;;20.50;42.90;;;;;;5125869;27;44092;-62
2022/03/25 02:12:01;;;;;;;7.23;6.63;;;20.50;42.90;;;;;;5125376;27;43442;-62
2022/03/25 02:14:29;;;;;;;6.70;6.13;;;20.40;42.90;;;;;;5123775;27;43776;-63
2022/03/25 02:16:56;;;;;;;7.38;6.70;;;20.40;43.10;;;;;;5123799;27;43992;-62
2022/03/25 02:19:25;;;;;;;7.53;6.82;;;20.40;43.00;;;;;;5129327;27;43460;-63
2022/03/25 02:21:52;;;;;;;6.80;6.13;;;20.40;43.00;;;;;;5129361;27;43634;-62
2022/03/25 02:24:27;;;;;;;7.32;6.63;;;20.40;43.00;;;;;;5120595;27;43826;-62
2022/03/25 02:26:55;;;;;;;6.72;6.18;;;20.40;43.00;;;;;;5125116;27;43961;-63
2022/03/25 02:29:23;;;;;;;6.53;6.03;;;20.30;42.90;;;;;;5125409;27;43488;-62
2022/03/25 02:31:51;;;;;;;6.40;5.90;;;20.30;43.00;;;;;;5126585;27;43437;-63
2022/03/25 02:34:18;;;;;;;6.95;6.43;;;20.30;43.00;;;;;;5123245;27;44748;-62
2022/03/25 02:36:47;;;;;;;7.00;6.40;;;20.30;42.90;;;;;;5126288;27;43521;-63
2022/03/25 02:39:18;;;;;;;7.15;6.55;;;20.30;42.90;;;;;;5126549;27;43448;-62
2022/03/25 02:41:46;;;;;;;7.00;6.40;;;20.30;42.90;;;;;;5125016;27;43545;-62
2022/03/25 02:44:14;;;;;;;6.40;5.80;;;20.30;43.00;;;;;;5122603;27;44200;-62
2022/03/25 02:46:45;;;;;;;6.68;6.07;;;20.30;43.00;;;;;;5115007;27;43763;-62
2022/03/25 02:49:13;;;;;;;6.90;6.20;;;20.20;42.90;;;;;;5125252;27;43420;-62
2022/03/25 02:51:41;;;;;;;6.93;6.28;;;20.20;42.90;;;;;;5124632;27;43524;-63
2022/03/25 02:54:08;;;;;;;7.20;6.50;;;20.20;42.90;;;;;;5125466;27;43748;-63
2022/03/25 02:56:36;;;;;;;6.07;5.60;;;20.20;42.90;;;;;;5125498;27;43671;-62
2022/03/25 02:59:03;;;;;;;6.32;5.75;;;20.20;42.90;;;;;;5126223;27;43465;-62
2022/03/25 03:01:31;;;;;;;5.78;5.28;;;20.20;42.90;;;;;;5123608;27;43602;-62
2022/03/25 03:03:59;;;;;;;5.90;5.40;;;20.20;42.90;;;;;;5123844;27;44961;-63
2022/03/25 03:06:26;;;;;;;5.93;5.43;;;20.20;42.90;;;;;;5124834;27;43580;-61
2022/03/25 03:08:53;;;;;;;5.75;5.25;;;20.10;42.90;;;;;;5124754;27;43400;-62
2022/03/25 03:11:21;;;;;;;6.15;5.65;;;20.10;42.90;;;;;;5134635;27;43486;-62
2022/03/25 03:13:48;;;;;;;5.78;5.28;;;20.10;42.90;;;;;;5145822;27;44506;-62
2022/03/25 03:16:16;;;;;;;5.57;5.13;;;20.10;43.00;;;;;;5146495;27;43752;-62
2022/03/25 03:18:43;;;;;;;6.18;5.68;;;20.10;42.90;;;;;;5145334;27;43482;-62
2022/03/25 03:21:11;;;;;;;6.47;5.85;;;20.10;42.90;;;;;;5146276;27;43642;-62
2022/03/25 03:23:39;;;;;;;6.20;5.60;;;20.10;42.90;;;;;;5145096;27;44951;-62
2022/03/25 03:26:06;;;;;;;6.10;5.60;;;20.00;42.80;;;;;;5143604;27;43434;-62
2022/03/25 03:28:34;;;;;;;5.80;5.30;;;20.00;42.90;;;;;;5145253;27;43395;-62
2022/03/25 03:31:01;;;;;;;5.50;5.03;;;20.00;42.80;;;;;;5143780;27;43462;-62
2022/03/25 03:33:29;;;;;;;6.60;6.00;;;20.00;42.90;;;;;;5144402;27;44356;-62
2022/03/25 03:35:56;;;;;;;6.18;5.57;;;20.00;42.90;;;;;;5144864;27;43485;-62
2022/03/25 03:38:24;;;;;;;6.00;5.50;;;20.00;43.00;;;;;;5145078;27;43407;-63
2022/03/25 03:40:51;;;;;;;5.90;5.30;;;19.90;42.90;;;;;;5144278;27;43458;-62
2022/03/25 03:43:19;;;;;;;5.72;5.22;;;20.00;42.90;;;;;;5144337;27;44058;-62
2022/03/25 03:45:46;;;;;;;5.93;5.43;;;19.90;42.90;;;;;;5146245;27;43848;-62
2022/03/25 03:48:14;;;;;;;5.82;5.32;;;19.90;42.90;;;;;;5145758;27;43395;-62
2022/03/25 03:50:42;;;;;;;6.30;5.80;;;19.90;42.80;;;;;;5146078;27;43515;-62
2022/03/25 03:53:09;;;;;;;5.40;5.00;;;19.90;42.80;;;;;;5145926;27;44031;-62
2022/03/25 03:55:37;;;;;;;5.60;5.20;;;19.90;42.90;;;;;;5145718;27;43766;-62
2022/03/25 03:58:04;;;;;;;5.90;5.45;;;19.90;42.80;;;;;;5141726;27;43479;-62
2022/03/25 04:00:32;;;;;;;6.63;6.07;;;19.90;42.90;;;;;;5145795;27;43466;-62
2022/03/25 04:03:00;;;;;;;6.57;6.03;;;19.80;42.80;;;;;;5145514;27;45164;-61
2022/03/25 04:05:28;;;;;;;6.40;5.80;;;19.80;42.90;;;;;;5145241;27;44011;-62
2022/03/25 04:07:55;;;;;;;6.18;5.68;;;19.80;42.80;;;;;;5146091;27;43995;-62
2022/03/25 04:10:23;;;;;;;6.28;5.78;;;19.80;42.90;;;;;;5145380;27;43480;-62
2022/03/25 04:12:50;;;;;;;6.32;5.82;;;19.80;42.80;;;;;;5145563;27;43793;-62
2022/03/25 04:15:18;;;;;;;7.20;6.10;;;19.70;42.80;;;;;;5145489;27;43758;-62
2022/03/25 04:17:45;;;;;;;6.68;6.07;;;19.70;42.90;;;;;;5146090;27;43478;-62
2022/03/25 04:20:14;;;;;;;6.55;5.95;;;19.70;42.90;;;;;;5153952;27;43482;-62
2022/03/25 04:22:43;;;;;;;6.35;5.85;;;19.70;42.90;;;;;;5145493;27;43807;-62
2022/03/25 04:25:11;;;;;;;6.35;5.75;;;19.70;42.90;;;;;;5145325;27;43834;-62
2022/03/25 04:27:53;;;;;;;6.45;5.80;;;19.70;42.90;;;;;;5126257;27;43519;-62
2022/03/25 04:30:27;;;;;;;6.57;5.97;;;19.70;42.90;;;;;;5144125;27;43512;-62
2022/03/25 04:32:55;;;;;;;6.22;5.65;;;19.70;42.90;;;;;;5143419;27;43613;-62
2022/03/25 04:35:24;;;;;;;6.25;5.75;;;19.70;43.00;;;;;;5145279;27;43703;-63
2022/03/25 04:37:52;;;;;;;6.70;6.10;;;19.60;42.90;;;;;;5144042;27;43516;-63
2022/03/25 04:40:22;;;;;;;6.60;6.00;;;19.60;42.90;;;;;;5143866;27;43615;-62
2022/03/25 04:42:51;;;;;;;6.47;5.88;;;19.60;42.90;;;;;;5144341;27;43855;-62
2022/03/25 04:45:20;;;;;;;6.80;6.25;;;19.60;42.90;;;;;;5143590;27;43552;-62
2022/03/25 04:47:48;;;;;;;6.10;5.60;;;19.60;42.90;;;;;;5123603;27;43465;-62
2022/03/25 04:50:16;;;;;;;6.10;5.60;;;19.60;42.90;;;;;;5143330;27;43523;-62
2022/03/25 04:52:46;;;;;;;6.18;5.68;;;19.60;42.90;;;;;;5144119;27;44045;-62
2022/03/25 04:55:19;;;;;;;6.03;5.57;;;19.60;42.90;;;;;;5143696;27;43554;-62
2022/03/25 04:57:47;;;;;;;;;;;19.60;42.90;;;;;;5145790;27;43497;-62
2022/03/25 05:00:15;;;;;;;5.93;5.43;;;19.50;42.90;;;;;;5144581;27;44086;-62
2022/03/25 05:02:44;;;;;;;6.18;5.68;;;19.50;42.90;;;;;;5145890;27;44316;-62
2022/03/25 05:05:13;;;;;;;6.50;5.90;;;19.50;42.90;;;;;;5147271;27;43477;-62
2022/03/25 05:07:46;;;;;;;6.20;5.65;;;19.50;42.80;;;;;;5146073;27;43979;-62
2022/03/25 05:10:14;;;;;;;6.30;5.80;;;19.50;42.80;;;;;;5147365;27;43746;-62
2022/03/25 05:12:43;;;;;;;5.78;5.28;;;19.50;42.80;;;;;;5146991;27;44056;-62
2022/03/25 05:15:12;;;;;;;5.55;5.15;;;19.50;42.80;;;;;;5137845;27;43461;-62
2022/03/25 05:17:51;;;;;;;5.50;5.10;;;19.50;42.90;;;;;;5147699;27;43481;-62
2022/03/25 05:20:21;;;;;;;5.32;4.93;;;19.50;42.90;;;;;;5148731;27;43433;-62
2022/03/25 05:22:49;;;;;;;5.32;4.93;;;19.50;42.80;;;;;;5148421;27;44708;-62
2022/03/25 05:25:18;;;;;;;5.57;5.07;;;19.40;42.80;;;;;;5147629;27;43975;-62
2022/03/25 05:27:53;;;;;;;5.53;5.03;;;19.40;42.90;;;;;;5145356;27;43393;-63
2022/03/25 05:30:25;;;;;;;5.20;4.80;;;19.40;42.90;;;;;;5146636;27;43476;-62
2022/03/25 05:32:54;;;;;;;5.05;4.65;;;19.40;42.90;;;;;;5147910;27;44959;-63
2022/03/25 05:35:24;;;;;;;5.57;5.07;;;19.40;42.90;;;;;;5128922;27;43959;-63
2022/03/25 05:37:52;;;;;;;5.60;5.00;;;19.40;42.90;;;;;;5148317;27;43429;-62
2022/03/25 05:40:22;;;;;;;5.30;4.80;;;19.40;42.90;;;;;;5148346;27;43457;-62
2022/03/25 05:42:50;;;;;;;5.00;4.60;;;19.30;42.70;;;;;;5147741;27;43797;-62
2022/03/25 05:45:20;;;;;;;5.25;4.70;;;19.30;42.80;;;;;;5129530;27;43636;-61
2022/03/25 05:47:49;;;;;;;4.90;4.50;;;19.30;42.90;;;;;;5148462;27;43472;-61
2022/03/25 05:50:18;;;;;;;4.72;4.40;;;19.30;42.80;;;;;;5129997;27;43681;-62
2022/03/25 05:52:46;;;;;;;4.50;4.10;;;19.30;42.90;;;;;;5147980;27;43849;-62
2022/03/25 05:55:16;;;;;;;4.93;4.53;;;19.30;42.80;;;;;;5146361;27;43456;-61
2022/03/25 05:57:44;;;;;;;4.50;4.10;;;19.30;42.90;;;;;;5148211;27;43422;-61
2022/03/25 06:00:14;;;;;;;5.30;4.90;;;19.30;42.90;;;;;;5146573;27;43446;-62
2022/03/25 06:02:44;;;;;;;4.90;4.50;;;19.30;42.80;;;;;;5141746;27;43761;-62
2022/03/25 06:05:13;;;;;;;4.68;4.30;;;19.30;42.80;;;;;;5146469;27;43672;-61
2022/03/25 06:07:43;;;;;;;5.00;4.60;;;19.30;42.70;;;;;;5140596;27;43506;-61
2022/03/25 06:10:12;;;;;;;4.88;4.47;;;19.30;42.80;;;;;;5145804;27;43481;-61
2022/03/25 06:12:40;;;;;;;4.63;4.22;;;19.20;42.80;;;;;;5126541;27;43809;-62
2022/03/25 06:15:08;;;;;;;4.60;4.20;;;19.20;42.70;;;;;;5145921;27;43736;-61
2022/03/25 06:17:47;;;;;;;4.55;4.15;;;19.20;42.80;;;;;;5146521;27;43918;-61
2022/03/25 06:20:18;;;;;;;5.20;4.68;;;19.30;42.80;;;;;;5139412;27;44061;-61
2022/03/25 06:22:49;;;;;;;4.57;4.18;;;19.20;42.80;;;;;;5145419;27;45277;-61
2022/03/25 06:25:18;;;;;;;4.22;3.92;;;19.20;42.80;;;;;;5146147;27;43552;-61
2022/03/25 06:28:07;;;;;;;4.65;4.35;;;19.20;42.80;;;;;;5147347;27;43413;-62
2022/03/25 06:30:36;;;;;;;5.07;4.68;;;19.20;42.70;;;;;;5145581;27;43560;-61
2022/03/25 06:33:09;;;;;;;4.65;4.25;;;19.20;42.80;;;;;;5145871;27;44400;-61
2022/03/25 06:35:39;;;;;;;4.65;4.28;;;19.20;42.70;;;;;;5144308;27;44015;-61
2022/03/25 06:38:08;;;;;;;4.63;4.22;;;19.20;42.80;;;;;;5144751;27;43428;-61
2022/03/25 06:40:35;;;;;;;4.50;4.10;;;19.20;42.80;;;;;;5147562;27;43557;-62
2022/03/25 06:43:05;;;;;;;4.63;4.10;;;19.20;42.80;;;;;;5145719;27;43819;-62
2022/03/25 06:45:34;;;;;;;4.80;4.40;;;19.20;42.70;;;;;;5145635;27;43984;-62
2022/03/25 06:48:01;;;;;;;4.18;3.88;;;19.10;42.90;;;;;;5126533;27;43413;-62
2022/03/25 06:50:29;;;;;;;4.22;3.85;;;19.10;43.00;;;;;;5146066;27;43492;-61
2022/03/25 06:52:57;;;;;;;4.35;3.97;;;19.10;43.00;;;;;;5145329;27;43811;-61
2022/03/25 06:55:26;;;;;;;3.78;3.47;;;19.10;43.10;;;;;;5127010;27;43584;-63
2022/03/25 06:57:53;;;;;;;4.22;3.92;;;19.10;43.20;;;;;;5146666;27;43448;-61
2022/03/25 07:00:21;;;;;;;4.47;4.07;;;19.10;43.20;;;;;;5145785;27;43485;-61
2022/03/25 07:02:51;;;;;;;4.28;3.97;;;19.10;43.20;;;;;;5145110;27;44953;-62
2022/03/25 07:05:19;;;;;;;4.50;4.10;;;19.10;43.20;;;;;;5145366;27;43612;-61
2022/03/25 07:07:47;;;;;;;4.03;3.72;;;19.10;43.20;;;;;;5144692;27;43377;-61
2022/03/25 07:10:15;;;;;;;4.45;4.05;;;19.10;43.20;;;;;;5144696;27;43453;-62
2022/03/25 07:12:45;;;;;;;4.10;3.80;;;19.10;43.20;;;;;;5127398;27;45018;-62
2022/03/25 07:15:13;;;;;;;4.10;3.80;;;19.10;43.20;;;;;;5145682;27;44011;-62
2022/03/25 07:17:43;;;;;;;4.20;3.90;;;19.10;43.30;;;;;;5145045;27;43526;-61
2022/03/25 07:20:15;;;;;;;3.95;3.65;;;19.10;43.30;;;;;;5146793;27;43471;-62
2022/03/25 07:22:43;;;;;;;4.05;3.75;;;19.20;43.30;;;;;;5126110;27;43839;-62
2022/03/25 07:25:12;;;;;;;4.20;3.80;;;19.20;43.30;;;;;;5145854;27;43763;-61
2022/03/25 07:27:41;;;;;;;3.72;3.42;;;19.20;43.30;;;;;;5146974;27;43475;-61
2022/03/25 07:30:10;;;;;;;3.92;3.63;;;19.20;43.30;;;;;;5146718;27;43501;-61
2022/03/25 07:32:37;;;;;;;3.95;3.65;;;19.20;43.20;;;;;;5146295;27;43964;-61
2022/03/25 07:35:05;;;;;;;3.58;3.28;;;19.20;43.30;;;;;;5146097;27;43586;-61
2022/03/25 07:37:33;;;;;;;3.90;3.60;;;19.20;43.30;;;;;;5146542;27;43472;-61
2022/03/25 07:40:00;;;;;;;3.85;3.55;;;19.20;43.40;;;;;;5146252;27;43493;-61
2022/03/25 07:42:28;;;;;;;3.72;3.42;;;19.20;43.30;;;;;;5145753;27;43809;-62
2022/03/25 07:44:57;;;;;;;4.13;3.72;;;19.20;43.30;;;;;;5144486;27;43475;-61
2022/03/25 07:47:24;;;;;;;4.28;3.97;;;19.20;43.40;;;;;;5145016;27;43448;-62
2022/03/25 07:49:52;;;;;;;4.35;3.70;;;19.20;43.40;;;;;;5144876;27;43457;-62
2022/03/25 07:52:19;;;;;;;4.10;3.67;;;19.30;43.50;;;;;;5144319;27;44740;-62
2022/03/25 07:54:53;;;;;;;4.63;4.22;;;19.30;43.40;;;;;;5142967;27;43445;-63
2022/03/25 07:57:21;;;;;;;4.43;4.13;;;19.40;43.30;;;;;;5144869;27;43486;-61
2022/03/25 07:59:48;;;;;;;5.55;4.00;;;19.50;43.20;;;;;;5144984;27;43496;-65
2022/03/25 08:03:59;;;;;;;4.00;3.60;;;19.70;42.90;;;;;;5092824;27;43495;-61
2022/03/25 08:06:26;;;;;;;4.88;3.92;;;19.70;43.60;;;;;;5096887;27;43687;-63
2022/03/25 08:09:42;;;;;;;4.28;3.90;;;19.90;46.60;;;;;;5015735;27;43527;-61
2022/03/25 08:12:10;;;;;;;3.90;3.60;;;20.10;43.70;;;;;;5048807;27;43691;-62
2022/03/25 08:14:38;;;;;;;4.28;3.88;;;20.30;43.30;;;;;;5027726;27;43453;-61
2022/03/25 08:17:08;;;;;;;4.00;3.70;;;20.40;43.00;;;;;;5041313;27;43479;-60
2022/03/25 08:19:35;;;;;;;4.68;4.10;;;20.60;43.10;;;;;;5039781;27;44029;-62
2022/03/25 08:22:03;;;;;;;4.88;4.40;;;20.70;42.70;;;;;;5051211;27;43737;-63
2022/03/25 08:30:02;;;;;;;6.72;4.22;;;21.30;42.00;;;;;;5068092;27;43785;-61
2022/03/25 08:32:29;;;;;;;4.68;4.00;;;21.60;41.70;;;;;;5064986;27;43488;-61
2022/03/25 08:34:57;;;;;;;9.27;3.90;;;21.80;41.40;;;;;;5019596;27;43551;-64
2022/03/25 08:37:29;;;;;;;4.88;4.00;;;22.00;41.30;;;;;;5047428;27;43621;-60
2022/03/25 08:39:56;;;;;;;8.13;4.80;;;22.20;41.10;;;;;;5038831;27;44047;-60
2022/03/25 08:42:24;;;;;;;4.50;4.10;;;22.40;41.20;;;;;;5018962;27;43422;-62
2022/03/25 08:44:51;;;;;;;7.00;4.57;;;22.60;40.60;;;;;;5037665;27;43523;-62
2022/03/25 08:47:19;;;;;;;4.93;3.67;;;22.80;40.20;;;;;;5059595;27;43500;-61
2022/03/25 08:49:46;;;;;;;5.35;3.90;;;23.00;40.10;;;;;;5047366;27;44686;-62
2022/03/25 08:52:14;;;;;;;4.75;3.90;;;23.20;39.80;;;;;;5037123;27;43483;-61
2022/03/25 08:54:41;;;;;;;5.60;3.78;;;23.40;39.60;;;;;;5045128;27;43491;-62
2022/03/25 08:57:09;;;;;;;8.25;3.80;;;23.60;39.30;;;;;;5027951;27;43448;-62
2022/03/25 08:59:37;;;;;;;4.00;3.60;;;23.80;39.10;;;;;;5044320;27;43787;-62
2022/03/25 09:02:04;;;;;;;4.18;3.78;;;24.00;38.90;;;;;;5051237;27;43876;-63
2022/03/25 09:04:32;;;;;;;4.18;3.40;;;24.10;38.70;;;;;;5059385;27;43498;-62
2022/03/25 09:07:00;;;;;;;4.30;3.28;;;24.30;38.30;;;;;;5019592;27;43568;-62
2022/03/25 09:09:28;;;;;;;4.10;3.58;;;24.50;38.30;;;;;;5046475;27;44057;-62
2022/03/25 09:11:56;;;;;;;4.00;3.53;;;24.60;38.20;;;;;;5056143;27;43461;-62
2022/03/25 09:14:23;;;;;;;4.68;3.60;;;24.70;38.10;;;;;;5030878;27;43524;-62
2022/03/25 09:16:50;;;;;;;4.40;3.60;;;24.80;37.90;;;;;;5016401;27;44002;-62
2022/03/25 09:19:18;;;;;;;4.72;3.67;;;24.90;37.70;;;;;;5041139;27;44088;-62
2022/03/25 09:21:46;;;;;;;6.85;3.97;;;24.90;37.60;;;;;;5022417;27;43970;-62
2022/03/25 09:24:13;;;;;;;6.35;4.00;;;25.00;37.40;;;;;;5042812;27;43422;-62
2022/03/25 09:26:41;;;;;;;4.05;3.70;;;25.00;37.40;;;;;;5028679;27;43586;-62
2022/03/25 09:29:09;;;;;;;3.90;3.60;;;25.10;37.60;;;;;;5033008;27;44552;-62
2022/03/25 09:31:36;;;;;;;4.30;3.90;;;25.10;37.50;;;;;;5043169;27;43476;-61
2022/03/25 09:36:58;;;;;;;4.20;3.35;;;25.20;37.40;;;;;;5019473;27;44238;-62
2022/03/25 09:39:25;;;;;;;4.43;3.55;;;25.20;37.40;;;;;;5004422;27;44695;-63
2022/03/25 09:41:53;;;;;;;4.82;3.63;;;25.20;37.30;;;;;;5040432;27;43874;-62
2022/03/25 09:44:21;;;;;;;3.92;3.60;;;25.30;37.50;;;;;;5040912;27;43518;-62
2022/03/25 09:46:50;;;;;;;5.03;3.50;;;25.30;37.40;;;;;;5012776;27;43421;-62
2022/03/25 09:49:19;;;;;;;4.22;3.42;;;25.30;37.40;;;;;;5009302;27;44450;-62
2022/03/25 09:51:46;;;;;;;3.63;3.25;;;25.30;37.40;;;;;;5007093;27;43670;-62
2022/03/25 09:54:16;;;;;;;4.25;3.47;;;25.30;37.40;;;;;;4998602;27;43471;-61
2022/03/25 09:56:43;;;;;;;4.47;3.60;;;25.20;37.30;;;;;;5023261;27;43595;-62
2022/03/25 09:59:19;;;;;;;6.20;4.32;;;25.20;37.40;;;;;;5017183;27;44099;-61
2022/03/25 10:01:46;;;;;;;4.82;3.55;;;25.10;37.50;;;;;;5027208;27;43491;-62
2022/03/25 10:04:46;;;;;;;5.78;3.70;;;25.00;37.70;;;;;;5027983;27;43589;-62
2022/03/25 10:07:27;;;;;;;5.53;3.78;;;24.90;37.80;;;;;;5004661;27;43429;-61
2022/03/25 10:10:10;;;;;;;5.15;3.60;;;24.70;38.00;;;;;;5026674;27;44047;-62
2022/03/25 10:12:40;;;;;;;3.85;3.22;;;24.60;38.30;;;;;;5036665;27;43549;-62
2022/03/25 10:15:37;;;;;;;5.43;3.75;;;24.50;38.40;;;;;;5010541;27;43508;-62
2022/03/25 10:18:07;;;;;;;4.28;3.60;;;24.50;38.60;;;;;;5000168;27;43629;-62
2022/03/25 10:20:41;;;;;;;4.95;3.67;;;24.40;38.70;;;;;;5032989;27;44945;-61
2022/03/25 10:23:15;;;;;;;4.47;3.30;;;24.30;38.90;;;;;;5025038;27;43478;-62
2022/03/25 10:25:47;;;;;;;6.10;3.50;;;24.30;39.10;;;;;;5027646;27;43477;-62
2022/03/25 10:28:37;;;;;;;4.47;3.70;;;24.20;39.10;;;;;;5039196;27;43414;-61
2022/03/25 10:31:07;;;;;;;4.05;3.55;;;24.10;39.20;;;;;;5024298;27;43798;-62
2022/03/25 10:33:37;;;;;;;5.15;3.30;;;24.10;39.50;;;;;;5057004;27;43497;-62
2022/03/25 10:36:07;;;;;;;3.80;3.50;;;24.00;39.50;;;;;;5017452;27;43437;-62
2022/03/25 10:38:46;;;;;;;4.00;3.60;;;24.00;39.60;;;;;;5026654;27;43492;-62
2022/03/25 10:41:17;;;;;;;4.57;3.85;;;23.90;39.60;;;;;;5021216;27;44955;-61
2022/03/25 10:43:59;;;;;;;6.47;3.90;;;23.90;39.70;;;;;;5059906;27;43776;-62
2022/03/25 10:46:53;;;;;;;3.70;3.40;;;23.80;39.80;;;;;;5020701;27;43473;-62
2022/03/25 10:49:21;;;;;;;3.80;3.30;;;23.80;39.80;;;;;;5011732;27;43553;-61
2022/03/25 10:51:53;;;;;;;4.10;3.40;;;23.80;39.90;;;;;;5023302;27;43811;-62
2022/03/25 10:54:25;;;;;;;4.30;3.47;;;23.80;40.00;;;;;;4999950;27;43422;-62
2022/03/25 10:56:54;;;;;;;3.90;3.60;;;23.80;40.00;;;;;;5001425;27;43472;-62
2022/03/25 10:59:30;;;;;;;4.03;3.60;;;23.80;40.00;;;;;;5014772;27;43580;-62
2022/03/25 11:02:00;;;;;;;3.70;3.40;;;23.80;40.10;;;;;;5001343;27;44052;-61
2022/03/25 11:04:29;;;;;;;4.15;3.75;;;23.80;40.10;;;;;;5001709;27;43978;-62
2022/03/25 11:06:58;;;;;;;4.88;4.40;;;23.80;40.20;;;;;;5001364;27;43525;-61
2022/03/25 11:09:27;;;;;;;5.00;4.50;;;23.80;40.30;;;;;;5000863;27;44172;-62
2022/03/25 11:11:58;;;;;;;5.20;4.05;;;23.70;40.10;;;;;;5001779;27;45003;-62
2022/03/25 11:14:27;;;;;;;4.38;3.97;;;23.70;40.40;;;;;;5007609;27;43831;-61
2022/03/25 11:16:59;;;;;;;4.30;3.90;;;23.70;40.40;;;;;;4998639;27;43459;-61
2022/03/25 11:19:27;;;;;;;4.93;4.43;;;23.70;40.40;;;;;;4997749;27;43523;-61
2022/03/25 11:21:59;;;;;;;4.13;3.72;;;23.70;40.30;;;;;;5004410;27;43786;-62
2022/03/25 11:24:30;;;;;;;4.35;4.05;;;23.70;40.40;;;;;;5000568;27;43504;-61
2022/03/25 11:27:01;;;;;;;4.60;4.20;;;23.70;40.40;;;;;;5001514;27;43497;-62
2022/03/25 11:29:32;;;;;;;5.57;4.65;;;23.70;40.40;;;;;;5002691;27;43548;-62
2022/03/25 11:32:11;;;;;;;4.40;4.00;;;23.70;40.50;;;;;;5003766;27;44084;-62
2022/03/25 11:35:07;;;;;;;4.82;4.32;;;23.70;40.60;;;;;;5022418;27;43755;-61
2022/03/25 11:37:35;;;;;;;4.90;4.20;;;23.70;40.60;;;;;;5001172;27;43506;-62
2022/03/25 11:40:20;;;;;;;4.57;4.18;;;23.70;40.60;;;;;;4999557;27;43455;-62
2022/03/25 11:42:50;;;;;;;3.90;3.60;;;23.70;41.20;;;;;;5010140;27;43805;-61
2022/03/25 11:45:20;;;;;;;5.40;4.67;;;23.70;40.60;;;;;;5000566;27;43708;-61
2022/03/25 11:48:00;;;;;;;4.55;4.15;;;23.70;40.40;;;;;;5001584;27;43444;-61
2022/03/25 11:50:35;;;;;;;4.63;4.10;;;23.70;40.50;;;;;;5003539;27;43584;-61
2022/03/25 11:53:12;;;;;;;4.65;4.25;;;23.70;40.60;;;;;;5001356;27;43803;-61
2022/03/25 11:56:03;;;;;;;4.85;4.45;;;23.70;40.60;;;;;;4998680;27;43468;-62
2022/03/25 11:58:37;;;;;;;4.88;4.47;;;23.80;40.60;;;;;;5011838;27;43560;-62
2022/03/25 12:01:13;;;;;;;4.57;4.18;;;23.70;40.60;;;;;;5009052;27;43445;-61
2022/03/25 12:03:49;;;;;;;4.70;4.30;;;23.80;40.60;;;;;;5003967;27;44899;-62
2022/03/25 12:06:19;;;;;;;5.00;4.50;;;23.80;40.60;;;;;;4999594;27;43464;-61
2022/03/25 12:09:10;;;;;;;4.50;4.10;;;23.80;40.60;;;;;;5000397;27;43509;-61
2022/03/25 12:11:59;;;;;;;4.63;4.22;;;23.80;40.60;;;;;;4998735;27;43431;-61
2022/03/25 12:14:33;;;;;;;4.13;3.83;;;23.80;40.70;;;;;;5040797;27;43795;-62
2022/03/25 12:17:08;;;;;;;4.18;3.88;;;23.80;40.60;;;;;;4999631;27;43518;-61
2022/03/25 12:19:39;;;;;;;5.95;5.03;;;23.80;40.70;;;;;;4991587;27;43465;-62
2022/03/25 12:22:18;;;;;;;6.10;4.63;;;23.80;40.20;;;;;;4999912;27;43440;-61
2022/03/25 12:24:47;;;;;;;4.50;4.10;;;23.90;40.50;;;;;;5011087;27;44027;-62
2022/03/25 12:27:17;;;;;;;4.63;4.18;;;23.80;40.60;;;;;;5009033;27;43761;-62
2022/03/25 12:29:48;;;;;;;5.45;4.57;;;23.80;40.60;;;;;;5021442;27;43489;-61
2022/03/25 12:32:16;;;;;;;;;;;23.80;40.00;;;;;;5001464;27;43648;-62
2022/03/25 12:35:07;;;;;;;4.63;4.05;;;23.90;40.40;;;;;;5016685;27;43785;-62
2022/03/25 12:37:34;;;;;;;4.85;4.45;;;23.80;40.30;;;;;;5000882;27;43417;-61
2022/03/25 12:40:25;;;;;;;3.88;3.58;;;23.90;40.40;;;;;;5011064;27;43524;-61
2022/03/25 12:42:59;;;;;;;4.50;4.10;;;23.90;40.60;;;;;;5009024;27;43395;-62
2022/03/25 12:45:39;;;;;;;4.22;3.83;;;23.90;40.40;;;;;;4996304;27;43798;-61
2022/03/25 12:48:11;;;;;;;4.30;3.97;;;23.90;40.50;;;;;;5008850;27;43492;-61
2022/03/25 12:50:49;;;;;;;4.35;3.80;;;23.90;40.50;;;;;;4998998;27;43521;-61
2022/03/25 12:53:21;;;;;;;4.65;4.20;;;24.00;40.50;;;;;;4999383;27;43680;-61
2022/03/25 12:55:49;;;;;;;4.63;4.20;;;24.00;40.50;;;;;;5001737;27;43903;-61
2022/03/25 12:58:19;;;;;;;4.60;4.20;;;24.00;40.60;;;;;;5015109;27;43506;-62
2022/03/25 13:00:49;;;;;;;4.90;4.10;;;24.00;40.60;;;;;;5002865;27;43478;-62
2022/03/25 13:03:19;;;;;;;4.85;4.00;;;24.10;40.60;;;;;;5017899;27;43652;-62
2022/03/25 13:05:46;;;;;;;4.18;3.78;;;24.10;40.50;;;;;;5004044;27;45155;-62
2022/03/25 13:08:14;;;;;;;3.75;3.45;;;24.10;40.50;;;;;;5031249;27;43592;-61
2022/03/25 13:10:43;;;;;;;4.00;3.70;;;24.10;40.50;;;;;;4999144;27;43455;-61
2022/03/25 13:13:12;;;;;;;4.03;3.63;;;24.10;40.30;;;;;;5011328;27;43571;-62